K9MN

Rochester

Rochester, Minnesota, USA
METAR K9MN 241215Z AUTO 00000KT 3/4SM OVC002 M11/M12 A3013 RMK AO1 T11091117
Observed Flight Rules
Feb-24 @ 12:15 UTC (9 minutes ago) Instrument Flight Rules
Wind Visibility Clouds
Calm 3/4 miles
  • Overcast at 200' AGL
Temperatures Readings
Current -11°C / 12°F
Dewpoint -12°C / 10°F
Humidity 92%
Altimeter 30.13" Hg
Pressure 1020 hPa
Elevation 355
METAR K9MN 241215Z AUTO 00000KT 3/4SM OVC002 M11/M12 A3013 RMK AO1 T11091117
Observed Flight Rules
Feb-24 @ 12:15 UTC
(9 minutes ago)
LIFR
Wind Visibility
Calm 3/4 miles
Clouds
  • Overcast at 200' AGL
Temperature Dewpoint
-11°C / 12°F -12°C / 10°F
Humidity Altimeter Pressure
92% 30.13" Hg 1020 hPa